MSC Kingston — VRPE9 — position and weather

sailwx.info

Track history (hours):
 
Tides and Currents Weather Stations Pressure Air Temp Water Temp Dewpoint Dewpoint Depression Visibility Wind Speed Wind Dir Waves Ship Positions

MSC Kingston

Last reported at 2018-Feb-21 21:00 UTC. Time now 2018-Feb-21 21:16 UTC.
Position N 43°31' E 008°53'.

Length 304 m; draft 11.5 m.

Type: Ship (hazmat cat D). MMSI: 477348500.

Date/timePositionNaut miles runAvg speedWind from/ knotsBaromVisibWave heightAir tempDewpointWater temp
2018-Feb-21 21:00N 43°31' E 008°53'4 8.8
2018-Feb-21 20:30N 43°28' E 008°48'5 9.3
2018-Feb-21 20:00N 43°26' E 008°42'5 9.4
2018-Feb-21 19:30N 43°24' E 008°36'5 9.1
2018-Feb-21 19:00N 43°22' E 008°31'5 9.1
2018-Feb-21 18:29N 43°19' E 008°25'5810.0
2018-Feb-21 12:40N 42°49' E 007°18'39111.7
2018-Feb-20 03:08N 39°28' W 000°08'212.9
2018-Feb-20 03:00N 39°27' W 000°10'612.1
2018-Feb-20 02:30N 39°25' W 000°17'2 4.5
2018-Feb-20 02:00N 39°26' W 000°19'0 0.1
2018-Feb-20 01:28N 39°26' W 000°19'0 0.0
2018-Feb-20 00:58N 39°26' W 000°19'0 0.0
2018-Feb-20 00:28N 39°26' W 000°19'0 0.0
2018-Feb-19 23:58N 39°26' W 000°19'0 0.0
2018-Feb-19 23:28N 39°26' W 000°19'0 0.0
2018-Feb-19 22:58N 39°26' W 000°19'0 0.0
2018-Feb-19 22:25N 39°26' W 000°19'0 0.0
2018-Feb-19 21:58N 39°26' W 000°19'0 0.0
2018-Feb-19 21:25N 39°26' W 000°19'0 0.0
2018-Feb-19 20:58N 39°26' W 000°19'0 0.0
2018-Feb-19 20:25N 39°26' W 000°19'0 0.0
2018-Feb-19 19:58N 39°26' W 000°19'0 0.0
2018-Feb-19 19:28N 39°26' W 000°19'0 0.0
2018-Feb-19 18:55N 39°26' W 000°19'0 0.0
2018-Feb-19 18:25N 39°26' W 000°19'0 0.0
2018-Feb-19 17:58N 39°26' W 000°19'0 0.0
2018-Feb-19 17:25N 39°26' W 000°19'0 0.0
2018-Feb-19 16:55N 39°26' W 000°19'0 0.0
2018-Feb-19 16:25N 39°26' W 000°19'0 0.0
2018-Feb-19 15:58N 39°26' W 000°19'0 0.0
2018-Feb-19 15:25N 39°26' W 000°19'0 0.0
2018-Feb-19 14:43N 39°26' W 000°19'0 0.0
2018-Feb-19 14:19N 39°26' W 000°19'0 0.0
2018-Feb-19 13:49N 39°26' W 000°19'0 0.0
2018-Feb-19 13:25N 39°26' W 000°19'0 0.0
2018-Feb-19 12:58N 39°26' W 000°19'0 0.0
2018-Feb-19 12:28N 39°26' W 000°19'0 0.0
2018-Feb-19 11:58N 39°26' W 000°19'0 0.0
2018-Feb-19 11:28N 39°26' W 000°19'0 0.0
2018-Feb-19 10:58N 39°26' W 000°19'0 0.0
2018-Feb-19 10:25N 39°26' W 000°19'0 0.0
2018-Feb-19 09:55N 39°26' W 000°19'0 0.0
2018-Feb-19 09:28N 39°26' W 000°19'0 0.0
2018-Feb-19 08:55N 39°26' W 000°19'0 0.0
2018-Feb-19 08:25N 39°26' W 000°19'0 0.0
2018-Feb-19 07:58N 39°26' W 000°19'0 0.0
2018-Feb-19 07:28N 39°26' W 000°19'0 0.0
2018-Feb-19 06:55N 39°26' W 000°19'0 0.0
2018-Feb-19 06:28N 39°26' W 000°19'0 0.0
2018-Feb-19 05:55N 39°26' W 000°19'0 0.0
2018-Feb-19 05:25N 39°26' W 000°19'0 0.0
2018-Feb-19 04:58N 39°26' W 000°19'0 0.0
2018-Feb-19 04:28N 39°26' W 000°19'0 0.0
2018-Feb-19 03:58N 39°26' W 000°19'0 0.0
2018-Feb-19 03:25N 39°26' W 000°19'0 0.0
2018-Feb-19 02:55N 39°26' W 000°19'0 0.0
2018-Feb-19 02:22N 39°26' W 000°19'0 0.0
2018-Feb-19 01:58N 39°26' W 000°19'0 0.0
2018-Feb-19 01:28N 39°26' W 000°19'0 0.0
2018-Feb-19 00:49N 39°26' W 000°19'0 0.0
2018-Feb-19 00:25N 39°26' W 000°19'0 0.0
2018-Feb-18 23:55N 39°26' W 000°19'0 0.1
2018-Feb-18 23:30N 39°26' W 000°19'2 3.8
2018-Feb-18 23:00N 39°25' W 000°17'4 7.8
2018-Feb-18 22:30N 39°25' W 000°12'5 9.5
2018-Feb-18 21:59N 39°25' W 000°06'2 0.6
2018-Feb-18 19:21N 39°23' W 000°06'1 2.0
2018-Feb-18 18:59N 39°23' W 000°06'79 8.5
2018-Feb-18 09:42N 38°04' W 000°05'1714.9
2018-Feb-18 08:33N 37°50' W 000°17'615.1
2018-Feb-18 08:11N 37°45' W 000°20'315.1
2018-Feb-18 08:00N 37°43' W 000°22'815.2
2018-Feb-18 07:31N 37°37' W 000°28'714.5
2018-Feb-18 07:01N 37°31' W 000°34'714.4
2018-Feb-18 06:31N 37°26' W 000°41'714.2
2018-Feb-18 06:00N 37°22' W 000°47'714.0
2018-Feb-18 05:30N 37°17' W 000°54'714.1
2018-Feb-18 05:00N 37°12' W 001°00'  
2018-Feb-14 08:05N 39°38' W 027°26'218.3
2018-Feb-14 08:00N 39°38' W 027°28'918.0
2018-Feb-14 07:30N 39°39' W 027°39'1218.3
2018-Feb-14 06:52N 39°41' W 027°54'718.6
2018-Feb-14 06:30N 39°42' W 028°03'918.2
2018-Feb-14 06:00N 39°43' W 028°15'918.3
2018-Feb-14 05:30N 39°44' W 028°26'918.2
2018-Feb-14 05:00N 39°45' W 028°38'917.9
2018-Feb-14 04:31N 39°46' W 028°50'918.1
2018-Feb-14 04:00N 39°47' W 029°02'918.0
2018-Feb-14 03:30N 39°47' W 029°13'917.9
2018-Feb-14 03:00N 39°48' W 029°25'918.1
2018-Feb-14 02:31N 39°49' W 029°36'918.0
2018-Feb-14 02:00N 39°50' W 029°48'917.9
2018-Feb-14 01:30N 39°51' W 029°60'918.1
2018-Feb-14 01:01N 39°52' W 030°12'918.2
2018-Feb-14 00:30N 39°53' W 030°23'918.0
2018-Feb-14 00:00N 39°54' W 030°35'918.5
2018-Feb-13 23:31N 39°55' W 030°47'917.9
2018-Feb-13 23:00N 39°56' W 030°59'918.2
2018-Feb-13 22:30N 39°56' W 031°10'1018.1
2018-Feb-13 21:57N 39°57' W 031°24'918.2
2018-Feb-13 21:28N 39°57' W 031°35'817.8
2018-Feb-13 21:00N 39°57' W 031°46'2517.9
2018-Feb-13 19:37N 39°57' W 032°18'3517.9
2018-Feb-13 17:40N 39°57' W 033°03'318.0
2018-Feb-13 17:29N 39°57' W 033°08'1618.0
2018-Feb-13 16:35N 39°57' W 033°29'218.6
2018-Feb-13 16:28N 39°57' W 033°32'  
Track history (hours):
 
Tides and Currents Weather Stations Pressure Air Temp Water Temp Dewpoint Dewpoint Depression Visibility Wind Speed Wind Dir Waves Ship Positions

MSC Kingston

Last reported at 2018-Feb-21 21:00 UTC. Time now 2018-Feb-21 21:16 UTC.
Position N 43°31' E 008°53'.

Length 304 m; draft 11.5 m.

Type: Ship (hazmat cat D). MMSI: 477348500.

Date/timePositionNaut miles runAvg speedWind from/ knotsBaromVisibWave heightAir tempDewpointWater temp
2018-Feb-21 21:00N 43°31' E 008°53'4 8.8
2018-Feb-21 20:30N 43°28' E 008°48'5 9.3
2018-Feb-21 20:00N 43°26' E 008°42'5 9.4
2018-Feb-21 19:30N 43°24' E 008°36'5 9.1
2018-Feb-21 19:00N 43°22' E 008°31'5 9.1
2018-Feb-21 18:29N 43°19' E 008°25'5810.0
2018-Feb-21 12:40N 42°49' E 007°18'39111.7
2018-Feb-20 03:08N 39°28' W 000°08'212.9
2018-Feb-20 03:00N 39°27' W 000°10'612.1
2018-Feb-20 02:30N 39°25' W 000°17'2 4.5
2018-Feb-20 02:00N 39°26' W 000°19'0 0.1
2018-Feb-20 01:28N 39°26' W 000°19'0 0.0
2018-Feb-20 00:58N 39°26' W 000°19'0 0.0
2018-Feb-20 00:28N 39°26' W 000°19'0 0.0
2018-Feb-19 23:58N 39°26' W 000°19'0 0.0
2018-Feb-19 23:28N 39°26' W 000°19'0 0.0
2018-Feb-19 22:58N 39°26' W 000°19'0 0.0
2018-Feb-19 22:25N 39°26' W 000°19'0 0.0
2018-Feb-19 21:58N 39°26' W 000°19'0 0.0
2018-Feb-19 21:25N 39°26' W 000°19'0 0.0
2018-Feb-19 20:58N 39°26' W 000°19'0 0.0
2018-Feb-19 20:25N 39°26' W 000°19'0 0.0
2018-Feb-19 19:58N 39°26' W 000°19'0 0.0
2018-Feb-19 19:28N 39°26' W 000°19'0 0.0
2018-Feb-19 18:55N 39°26' W 000°19'0 0.0
2018-Feb-19 18:25N 39°26' W 000°19'0 0.0
2018-Feb-19 17:58N 39°26' W 000°19'0 0.0
2018-Feb-19 17:25N 39°26' W 000°19'0 0.0
2018-Feb-19 16:55N 39°26' W 000°19'0 0.0
2018-Feb-19 16:25N 39°26' W 000°19'0 0.0
2018-Feb-19 15:58N 39°26' W 000°19'0 0.0
2018-Feb-19 15:25N 39°26' W 000°19'0 0.0
2018-Feb-19 14:43N 39°26' W 000°19'0 0.0
2018-Feb-19 14:19N 39°26' W 000°19'0 0.0
2018-Feb-19 13:49N 39°26' W 000°19'0 0.0
2018-Feb-19 13:25N 39°26' W 000°19'0 0.0
2018-Feb-19 12:58N 39°26' W 000°19'0 0.0
2018-Feb-19 12:28N 39°26' W 000°19'0 0.0
2018-Feb-19 11:58N 39°26' W 000°19'0 0.0
2018-Feb-19 11:28N 39°26' W 000°19'0 0.0
2018-Feb-19 10:58N 39°26' W 000°19'0 0.0
2018-Feb-19 10:25N 39°26' W 000°19'0 0.0
2018-Feb-19 09:55N 39°26' W 000°19'0 0.0
2018-Feb-19 09:28N 39°26' W 000°19'0 0.0
2018-Feb-19 08:55N 39°26' W 000°19'0 0.0
2018-Feb-19 08:25N 39°26' W 000°19'0 0.0
2018-Feb-19 07:58N 39°26' W 000°19'0 0.0
2018-Feb-19 07:28N 39°26' W 000°19'0 0.0
2018-Feb-19 06:55N 39°26' W 000°19'0 0.0
2018-Feb-19 06:28N 39°26' W 000°19'0 0.0
2018-Feb-19 05:55N 39°26' W 000°19'0 0.0
2018-Feb-19 05:25N 39°26' W 000°19'0 0.0
2018-Feb-19 04:58N 39°26' W 000°19'0 0.0
2018-Feb-19 04:28N 39°26' W 000°19'0 0.0
2018-Feb-19 03:58N 39°26' W 000°19'0 0.0
2018-Feb-19 03:25N 39°26' W 000°19'0 0.0
2018-Feb-19 02:55N 39°26' W 000°19'0 0.0
2018-Feb-19 02:22N 39°26' W 000°19'0 0.0
2018-Feb-19 01:58N 39°26' W 000°19'0 0.0
2018-Feb-19 01:28N 39°26' W 000°19'0 0.0
2018-Feb-19 00:49N 39°26' W 000°19'0 0.0
2018-Feb-19 00:25N 39°26' W 000°19'0 0.0
2018-Feb-18 23:55N 39°26' W 000°19'0 0.1
2018-Feb-18 23:30N 39°26' W 000°19'2 3.8
2018-Feb-18 23:00N 39°25' W 000°17'4 7.8
2018-Feb-18 22:30N 39°25' W 000°12'5 9.5
2018-Feb-18 21:59N 39°25' W 000°06'2 0.6
2018-Feb-18 19:21N 39°23' W 000°06'1 2.0
2018-Feb-18 18:59N 39°23' W 000°06'79 8.5
2018-Feb-18 09:42N 38°04' W 000°05'1714.9
2018-Feb-18 08:33N 37°50' W 000°17'615.1
2018-Feb-18 08:11N 37°45' W 000°20'315.1
2018-Feb-18 08:00N 37°43' W 000°22'815.2
2018-Feb-18 07:31N 37°37' W 000°28'714.5
2018-Feb-18 07:01N 37°31' W 000°34'714.4
2018-Feb-18 06:31N 37°26' W 000°41'714.2
2018-Feb-18 06:00N 37°22' W 000°47'714.0
2018-Feb-18 05:30N 37°17' W 000°54'714.1
2018-Feb-18 05:00N 37°12' W 001°00'  
2018-Feb-14 08:05N 39°38' W 027°26'218.3
2018-Feb-14 08:00N 39°38' W 027°28'918.0
2018-Feb-14 07:30N 39°39' W 027°39'1218.3
2018-Feb-14 06:52N 39°41' W 027°54'718.6
2018-Feb-14 06:30N 39°42' W 028°03'918.2
2018-Feb-14 06:00N 39°43' W 028°15'918.3
2018-Feb-14 05:30N 39°44' W 028°26'918.2
2018-Feb-14 05:00N 39°45' W 028°38'917.9
2018-Feb-14 04:31N 39°46' W 028°50'918.1
2018-Feb-14 04:00N 39°47' W 029°02'918.0
2018-Feb-14 03:30N 39°47' W 029°13'917.9
2018-Feb-14 03:00N 39°48' W 029°25'918.1
2018-Feb-14 02:31N 39°49' W 029°36'918.0
2018-Feb-14 02:00N 39°50' W 029°48'917.9
2018-Feb-14 01:30N 39°51' W 029°60'918.1
2018-Feb-14 01:01N 39°52' W 030°12'918.2
2018-Feb-14 00:30N 39°53' W 030°23'918.0
2018-Feb-14 00:00N 39°54' W 030°35'918.5
2018-Feb-13 23:31N 39°55' W 030°47'917.9
2018-Feb-13 23:00N 39°56' W 030°59'918.2
2018-Feb-13 22:30N 39°56' W 031°10'1018.1
2018-Feb-13 21:57N 39°57' W 031°24'918.2
2018-Feb-13 21:28N 39°57' W 031°35'817.8
2018-Feb-13 21:00N 39°57' W 031°46'2517.9
2018-Feb-13 19:37N 39°57' W 032°18'3517.9
2018-Feb-13 17:40N 39°57' W 033°03'318.0
2018-Feb-13 17:29N 39°57' W 033°08'1618.0
2018-Feb-13 16:35N 39°57' W 033°29'218.6
2018-Feb-13 16:28N 39°57' W 033°32'  

Dump ship's entire track history